sensor_id;sensor_type;location;lat;lon;timestamp;temperature;humidity
74101;DHT22;62462;52.530;21.682;2023-05-09T00:00:16;8.00;55.40
74101;DHT22;62462;52.530;21.682;2023-05-09T00:02:42;8.10;54.50
74101;DHT22;62462;52.530;21.682;2023-05-09T00:05:10;8.00;54.70
74101;DHT22;62462;52.530;21.682;2023-05-09T00:07:36;7.90;54.70
74101;DHT22;62462;52.530;21.682;2023-05-09T00:10:02;7.90;55.40
74101;DHT22;62462;52.530;21.682;2023-05-09T00:12:28;7.90;55.30
74101;DHT22;62462;52.530;21.682;2023-05-09T00:14:54;7.80;55.40
74101;DHT22;62462;52.530;21.682;2023-05-09T00:17:22;7.80;54.40
74101;DHT22;62462;52.530;21.682;2023-05-09T00:19:49;7.80;54.20
74101;DHT22;62462;52.530;21.682;2023-05-09T00:22:16;7.70;54.60
74101;DHT22;62462;52.530;21.682;2023-05-09T00:24:42;7.60;55.10
74101;DHT22;62462;52.530;21.682;2023-05-09T00:27:08;7.70;55.10
74101;DHT22;62462;52.530;21.682;2023-05-09T00:29:34;7.70;55.40
74101;DHT22;62462;52.530;21.682;2023-05-09T00:32:00;7.80;55.10
74101;DHT22;62462;52.530;21.682;2023-05-09T00:34:26;7.80;54.40
74101;DHT22;62462;52.530;21.682;2023-05-09T00:36:51;7.70;54.40
74101;DHT22;62462;52.530;21.682;2023-05-09T00:39:17;7.70;54.60
74101;DHT22;62462;52.530;21.682;2023-05-09T00:41:43;7.50;55.00
74101;DHT22;62462;52.530;21.682;2023-05-09T00:44:08;7.50;55.40
74101;DHT22;62462;52.530;21.682;2023-05-09T00:46:34;7.50;54.90
74101;DHT22;62462;52.530;21.682;2023-05-09T00:49:00;7.50;54.90
74101;DHT22;62462;52.530;21.682;2023-05-09T00:51:27;7.30;55.50
74101;DHT22;62462;52.530;21.682;2023-05-09T00:53:53;7.30;55.70
74101;DHT22;62462;52.530;21.682;2023-05-09T00:56:19;7.40;55.60
74101;DHT22;62462;52.530;21.682;2023-05-09T00:58:46;7.40;55.00
74101;DHT22;62462;52.530;21.682;2023-05-09T01:01:12;7.40;54.60
74101;DHT22;62462;52.530;21.682;2023-05-09T01:03:38;7.40;54.90
74101;DHT22;62462;52.530;21.682;2023-05-09T01:11:28;7.40;55.20
74101;DHT22;62462;52.530;21.682;2023-05-09T01:16:39;7.30;54.70
74101;DHT22;62462;52.530;21.682;2023-05-09T01:19:09;7.30;54.70
74101;DHT22;62462;52.530;21.682;2023-05-09T01:21:39;7.20;55.10
74101;DHT22;62462;52.530;21.682;2023-05-09T01:29:50;7.10;55.80
74101;DHT22;62462;52.530;21.682;2023-05-09T01:32:21;7.20;55.70
74101;DHT22;62462;52.530;21.682;2023-05-09T01:34:49;7.20;55.70
74101;DHT22;62462;52.530;21.682;2023-05-09T01:37:18;7.10;55.60
74101;DHT22;62462;52.530;21.682;2023-05-09T01:39:47;7.20;55.30
74101;DHT22;62462;52.530;21.682;2023-05-09T01:42:17;7.10;54.50
74101;DHT22;62462;52.530;21.682;2023-05-09T01:44:44;7.00;54.80
74101;DHT22;62462;52.530;21.682;2023-05-09T01:47:11;6.90;55.10
74101;DHT22;62462;52.530;21.682;2023-05-09T01:49:42;6.90;55.50
74101;DHT22;62462;52.530;21.682;2023-05-09T01:52:11;6.90;55.60
74101;DHT22;62462;52.530;21.682;2023-05-09T01:54:38;7.00;55.90
74101;DHT22;62462;52.530;21.682;2023-05-09T01:57:06;7.00;56.20
74101;DHT22;62462;52.530;21.682;2023-05-09T01:59:33;7.00;56.20
74101;DHT22;62462;52.530;21.682;2023-05-09T02:02:01;7.00;55.20
74101;DHT22;62462;52.530;21.682;2023-05-09T02:04:28;6.90;55.50
74101;DHT22;62462;52.530;21.682;2023-05-09T02:06:56;6.80;56.30
74101;DHT22;62462;52.530;21.682;2023-05-09T02:09:22;6.60;57.30
74101;DHT22;62462;52.530;21.682;2023-05-09T02:11:48;6.60;57.40
74101;DHT22;62462;52.530;21.682;2023-05-09T02:14:14;6.60;57.20
74101;DHT22;62462;52.530;21.682;2023-05-09T02:16:40;6.60;57.70
74101;DHT22;62462;52.530;21.682;2023-05-09T02:19:06;6.60;57.70
74101;DHT22;62462;52.530;21.682;2023-05-09T02:21:32;6.60;57.80
74101;DHT22;62462;52.530;21.682;2023-05-09T02:23:58;6.60;56.90
74101;DHT22;62462;52.530;21.682;2023-05-09T02:26:24;6.60;56.50
74101;DHT22;62462;52.530;21.682;2023-05-09T02:28:51;6.60;56.50
74101;DHT22;62462;52.530;21.682;2023-05-09T02:31:19;6.60;56.70
74101;DHT22;62462;52.530;21.682;2023-05-09T02:33:45;6.60;56.50
74101;DHT22;62462;52.530;21.682;2023-05-09T02:36:13;6.60;56.80
74101;DHT22;62462;52.530;21.682;2023-05-09T02:38:41;6.60;56.70
74101;DHT22;62462;52.530;21.682;2023-05-09T02:41:14;6.50;56.60
74101;DHT22;62462;52.530;21.682;2023-05-09T02:43:40;6.50;56.10
74101;DHT22;62462;52.530;21.682;2023-05-09T02:46:07;6.40;56.30
74101;DHT22;62462;52.530;21.682;2023-05-09T02:48:33;6.50;56.30
74101;DHT22;62462;52.530;21.682;2023-05-09T02:50:59;6.40;56.30
74101;DHT22;62462;52.530;21.682;2023-05-09T02:53:25;6.30;56.60
74101;DHT22;62462;52.530;21.682;2023-05-09T02:55:50;6.20;57.10
74101;DHT22;62462;52.530;21.682;2023-05-09T02:58:18;6.20;57.60
74101;DHT22;62462;52.530;21.682;2023-05-09T03:00:44;6.30;57.40
74101;DHT22;62462;52.530;21.682;2023-05-09T03:03:09;6.30;57.30
74101;DHT22;62462;52.530;21.682;2023-05-09T03:05:35;6.40;57.30
74101;DHT22;62462;52.530;21.682;2023-05-09T03:08:01;6.40;57.20
74101;DHT22;62462;52.530;21.682;2023-05-09T03:10:27;6.40;57.30
74101;DHT22;62462;52.530;21.682;2023-05-09T03:12:53;6.40;57.00
74101;DHT22;62462;52.530;21.682;2023-05-09T03:15:19;6.40;56.10
74101;DHT22;62462;52.530;21.682;2023-05-09T03:17:45;6.40;55.90
74101;DHT22;62462;52.530;21.682;2023-05-09T03:20:11;6.30;56.30
74101;DHT22;62462;52.530;21.682;2023-05-09T03:22:37;6.30;56.70
74101;DHT22;62462;52.530;21.682;2023-05-09T03:25:03;6.20;56.90
74101;DHT22;62462;52.530;21.682;2023-05-09T03:27:28;6.20;57.60
74101;DHT22;62462;52.530;21.682;2023-05-09T03:29:54;6.20;57.70
74101;DHT22;62462;52.530;21.682;2023-05-09T03:32:20;6.20;57.90
74101;DHT22;62462;52.530;21.682;2023-05-09T03:34:46;6.20;57.80
74101;DHT22;62462;52.530;21.682;2023-05-09T03:37:12;6.30;57.10
74101;DHT22;62462;52.530;21.682;2023-05-09T03:39:37;6.30;57.20
74101;DHT22;62462;52.530;21.682;2023-05-09T03:42:03;6.30;57.00
74101;DHT22;62462;52.530;21.682;2023-05-09T03:44:29;6.30;57.50
74101;DHT22;62462;52.530;21.682;2023-05-09T03:46:55;6.30;57.50
74101;DHT22;62462;52.530;21.682;2023-05-09T03:49:20;6.30;57.60
74101;DHT22;62462;52.530;21.682;2023-05-09T03:51:46;6.40;57.90
74101;DHT22;62462;52.530;21.682;2023-05-09T03:54:12;6.40;58.10
74101;DHT22;62462;52.530;21.682;2023-05-09T03:56:37;6.50;58.30
74101;DHT22;62462;52.530;21.682;2023-05-09T03:59:03;6.50;58.30
74101;DHT22;62462;52.530;21.682;2023-05-09T04:01:29;6.60;58.10
74101;DHT22;62462;52.530;21.682;2023-05-09T04:03:55;6.70;58.20
74101;DHT22;62462;52.530;21.682;2023-05-09T04:06:22;6.70;58.40
74101;DHT22;62462;52.530;21.682;2023-05-09T04:08:48;6.70;58.30
74101;DHT22;62462;52.530;21.682;2023-05-09T04:11:13;6.70;58.50
74101;DHT22;62462;52.530;21.682;2023-05-09T04:13:39;6.80;59.10
74101;DHT22;62462;52.530;21.682;2023-05-09T04:16:05;6.80;58.80
74101;DHT22;62462;52.530;21.682;2023-05-09T04:18:31;6.90;59.10
74101;DHT22;62462;52.530;21.682;2023-05-09T04:20:56;7.00;59.90
74101;DHT22;62462;52.530;21.682;2023-05-09T04:23:22;7.10;59.30
74101;DHT22;62462;52.530;21.682;2023-05-09T04:25:48;7.20;59.10
74101;DHT22;62462;52.530;21.682;2023-05-09T04:28:15;7.40;58.90
74101;DHT22;62462;52.530;21.682;2023-05-09T04:30:41;7.50;58.90
74101;DHT22;62462;52.530;21.682;2023-05-09T04:33:07;7.60;59.00
74101;DHT22;62462;52.530;21.682;2023-05-09T04:35:32;7.70;58.70
74101;DHT22;62462;52.530;21.682;2023-05-09T04:37:58;7.80;58.70
74101;DHT22;62462;52.530;21.682;2023-05-09T04:40:24;8.00;58.80
74101;DHT22;62462;52.530;21.682;2023-05-09T04:42:50;8.00;58.40
74101;DHT22;62462;52.530;21.682;2023-05-09T04:45:16;8.20;58.30
74101;DHT22;62462;52.530;21.682;2023-05-09T04:47:42;8.40;58.20
74101;DHT22;62462;52.530;21.682;2023-05-09T04:50:08;8.50;58.10
74101;DHT22;62462;52.530;21.682;2023-05-09T04:52:34;8.60;57.70
74101;DHT22;62462;52.530;21.682;2023-05-09T04:55:00;8.80;57.50
74101;DHT22;62462;52.530;21.682;2023-05-09T04:57:26;9.00;57.20
74101;DHT22;62462;52.530;21.682;2023-05-09T04:59:51;9.10;56.80
74101;DHT22;62462;52.530;21.682;2023-05-09T05:02:17;9.20;56.60
74101;DHT22;62462;52.530;21.682;2023-05-09T05:04:43;9.40;56.30
74101;DHT22;62462;52.530;21.682;2023-05-09T05:07:09;9.50;56.10
74101;DHT22;62462;52.530;21.682;2023-05-09T05:09:35;9.70;55.90
74101;DHT22;62462;52.530;21.682;2023-05-09T05:12:00;9.80;55.60
74101;DHT22;62462;52.530;21.682;2023-05-09T05:14:26;9.90;55.40
74101;DHT22;62462;52.530;21.682;2023-05-09T05:16:52;10.00;55.20
74101;DHT22;62462;52.530;21.682;2023-05-09T05:19:17;10.20;55.20
74101;DHT22;62462;52.530;21.682;2023-05-09T05:21:43;10.30;55.00
74101;DHT22;62462;52.530;21.682;2023-05-09T05:24:09;10.40;54.60
74101;DHT22;62462;52.530;21.682;2023-05-09T05:26:34;10.60;54.50
74101;DHT22;62462;52.530;21.682;2023-05-09T05:29:00;10.70;54.20
74101;DHT22;62462;52.530;21.682;2023-05-09T05:31:26;10.90;54.00
74101;DHT22;62462;52.530;21.682;2023-05-09T05:33:51;11.00;53.80
74101;DHT22;62462;52.530;21.682;2023-05-09T05:36:17;11.10;53.60
74101;DHT22;62462;52.530;21.682;2023-05-09T05:38:43;11.30;53.40
74101;DHT22;62462;52.530;21.682;2023-05-09T05:41:08;11.50;53.20
74101;DHT22;62462;52.530;21.682;2023-05-09T05:43:35;11.60;53.00
74101;DHT22;62462;52.530;21.682;2023-05-09T05:46:01;11.80;52.90
74101;DHT22;62462;52.530;21.682;2023-05-09T05:48:27;11.90;52.50
74101;DHT22;62462;52.530;21.682;2023-05-09T05:50:52;12.10;52.10
74101;DHT22;62462;52.530;21.682;2023-05-09T05:53:18;12.20;51.60
74101;DHT22;62462;52.530;21.682;2023-05-09T05:55:44;12.30;51.50
74101;DHT22;62462;52.530;21.682;2023-05-09T05:58:11;12.50;51.30
74101;DHT22;62462;52.530;21.682;2023-05-09T06:00:36;12.60;50.60
74101;DHT22;62462;52.530;21.682;2023-05-09T06:03:02;12.70;49.80
74101;DHT22;62462;52.530;21.682;2023-05-09T06:05:28;12.90;47.40
74101;DHT22;62462;52.530;21.682;2023-05-09T06:07:54;13.00;47.40
74101;DHT22;62462;52.530;21.682;2023-05-09T06:10:19;13.20;47.80
74101;DHT22;62462;52.530;21.682;2023-05-09T06:12:45;13.30;45.60
74101;DHT22;62462;52.530;21.682;2023-05-09T06:15:11;13.40;46.10
74101;DHT22;62462;52.530;21.682;2023-05-09T06:17:36;13.60;44.80
74101;DHT22;62462;52.530;21.682;2023-05-09T06:20:02;13.70;44.90
74101;DHT22;62462;52.530;21.682;2023-05-09T06:22:28;13.80;44.50
74101;DHT22;62462;52.530;21.682;2023-05-09T06:24:54;13.90;43.60
74101;DHT22;62462;52.530;21.682;2023-05-09T06:27:20;14.00;44.10
74101;DHT22;62462;52.530;21.682;2023-05-09T06:29:45;14.10;43.90
74101;DHT22;62462;52.530;21.682;2023-05-09T06:32:11;14.30;43.30
74101;DHT22;62462;52.530;21.682;2023-05-09T06:34:36;14.40;43.30
74101;DHT22;62462;52.530;21.682;2023-05-09T06:37:02;14.50;42.40
74101;DHT22;62462;52.530;21.682;2023-05-09T06:39:28;14.60;41.70
74101;DHT22;62462;52.530;21.682;2023-05-09T06:41:53;14.70;40.60
74101;DHT22;62462;52.530;21.682;2023-05-09T06:44:19;14.80;41.80
74101;DHT22;62462;52.530;21.682;2023-05-09T06:46:45;14.90;39.40
74101;DHT22;62462;52.530;21.682;2023-05-09T06:49:10;15.00;38.70
74101;DHT22;62462;52.530;21.682;2023-05-09T06:51:38;15.10;38.80
74101;DHT22;62462;52.530;21.682;2023-05-09T06:54:04;15.20;39.90
74101;DHT22;62462;52.530;21.682;2023-05-09T06:56:30;15.30;36.30
74101;DHT22;62462;52.530;21.682;2023-05-09T06:58:56;15.40;38.50
74101;DHT22;62462;52.530;21.682;2023-05-09T07:01:21;15.40;35.50
74101;DHT22;62462;52.530;21.682;2023-05-09T07:03:47;15.50;35.20
74101;DHT22;62462;52.530;21.682;2023-05-09T07:06:13;15.50;35.90
74101;DHT22;62462;52.530;21.682;2023-05-09T07:08:39;15.50;36.40
74101;DHT22;62462;52.530;21.682;2023-05-09T07:11:04;15.60;37.40
74101;DHT22;62462;52.530;21.682;2023-05-09T07:13:30;15.80;36.50
74101;DHT22;62462;52.530;21.682;2023-05-09T07:15:56;15.80;33.60
74101;DHT22;62462;52.530;21.682;2023-05-09T07:18:22;15.80;34.10
74101;DHT22;62462;52.530;21.682;2023-05-09T07:20:48;15.90;33.50
74101;DHT22;62462;52.530;21.682;2023-05-09T07:23:13;15.90;32.70
74101;DHT22;62462;52.530;21.682;2023-05-09T07:25:39;16.00;33.80
74101;DHT22;62462;52.530;21.682;2023-05-09T07:28:05;16.10;33.10
74101;DHT22;62462;52.530;21.682;2023-05-09T07:30:31;16.10;33.30
74101;DHT22;62462;52.530;21.682;2023-05-09T07:32:56;16.20;30.00
74101;DHT22;62462;52.530;21.682;2023-05-09T07:35:22;16.20;31.40
74101;DHT22;62462;52.530;21.682;2023-05-09T07:37:48;16.20;31.00
74101;DHT22;62462;52.530;21.682;2023-05-09T07:40:14;16.30;32.80
74101;DHT22;62462;52.530;21.682;2023-05-09T07:42:39;16.40;33.00
74101;DHT22;62462;52.530;21.682;2023-05-09T07:45:06;16.60;31.50
74101;DHT22;62462;52.530;21.682;2023-05-09T07:47:32;16.60;31.40
74101;DHT22;62462;52.530;21.682;2023-05-09T07:49:58;16.70;30.90
74101;DHT22;62462;52.530;21.682;2023-05-09T07:52:23;16.80;31.50
74101;DHT22;62462;52.530;21.682;2023-05-09T07:54:49;16.90;32.00
74101;DHT22;62462;52.530;21.682;2023-05-09T07:57:15;17.00;31.40
74101;DHT22;62462;52.530;21.682;2023-05-09T07:59:41;17.10;31.30
74101;DHT22;62462;52.530;21.682;2023-05-09T08:02:07;17.10;29.60
74101;DHT22;62462;52.530;21.682;2023-05-09T08:04:33;17.10;28.50
74101;DHT22;62462;52.530;21.682;2023-05-09T08:07:03;17.10;29.60
74101;DHT22;62462;52.530;21.682;2023-05-09T08:09:29;17.10;29.40
74101;DHT22;62462;52.530;21.682;2023-05-09T08:11:54;17.10;30.00
74101;DHT22;62462;52.530;21.682;2023-05-09T08:14:20;17.20;29.50
74101;DHT22;62462;52.530;21.682;2023-05-09T08:16:46;17.30;29.80
74101;DHT22;62462;52.530;21.682;2023-05-09T08:19:11;17.40;30.10
74101;DHT22;62462;52.530;21.682;2023-05-09T08:21:37;17.50;30.00
74101;DHT22;62462;52.530;21.682;2023-05-09T08:24:03;17.50;30.90
74101;DHT22;62462;52.530;21.682;2023-05-09T08:26:32;17.60;30.00
74101;DHT22;62462;52.530;21.682;2023-05-09T08:28:59;17.70;30.00
74101;DHT22;62462;52.530;21.682;2023-05-09T08:31:25;17.80;30.10
74101;DHT22;62462;52.530;21.682;2023-05-09T08:33:51;17.90;29.20
74101;DHT22;62462;52.530;21.682;2023-05-09T08:36:17;17.90;30.50
74101;DHT22;62462;52.530;21.682;2023-05-09T08:38:43;17.90;29.20
74101;DHT22;62462;52.530;21.682;2023-05-09T08:41:08;17.90;29.00
74101;DHT22;62462;52.530;21.682;2023-05-09T08:43:34;17.80;29.20
74101;DHT22;62462;52.530;21.682;2023-05-09T08:46:06;17.90;30.40
74101;DHT22;62462;52.530;21.682;2023-05-09T08:48:34;18.10;29.10
74101;DHT22;62462;52.530;21.682;2023-05-09T08:51:03;18.10;28.60
74101;DHT22;62462;52.530;21.682;2023-05-09T08:53:30;18.10;27.30
74101;DHT22;62462;52.530;21.682;2023-05-09T08:56:01;18.00;28.10
74101;DHT22;62462;52.530;21.682;2023-05-09T08:58:28;18.00;28.90
74101;DHT22;62462;52.530;21.682;2023-05-09T09:00:55;17.90;28.00
74101;DHT22;62462;52.530;21.682;2023-05-09T09:03:22;17.90;28.40
74101;DHT22;62462;52.530;21.682;2023-05-09T09:05:50;18.00;28.20
74101;DHT22;62462;52.530;21.682;2023-05-09T09:08:18;18.10;28.80
74101;DHT22;62462;52.530;21.682;2023-05-09T09:10:44;18.30;27.90
74101;DHT22;62462;52.530;21.682;2023-05-09T09:13:14;18.40;29.30
74101;DHT22;62462;52.530;21.682;2023-05-09T09:15:42;18.60;27.30
74101;DHT22;62462;52.530;21.682;2023-05-09T09:18:15;18.40;27.30
74101;DHT22;62462;52.530;21.682;2023-05-09T09:20:55;18.40;26.80
74101;DHT22;62462;52.530;21.682;2023-05-09T09:23:24;18.30;27.40
74101;DHT22;62462;52.530;21.682;2023-05-09T09:26:00;18.30;26.50
74101;DHT22;62462;52.530;21.682;2023-05-09T09:28:26;18.40;28.10
74101;DHT22;62462;52.530;21.682;2023-05-09T09:30:52;18.50;28.00
74101;DHT22;62462;52.530;21.682;2023-05-09T09:33:20;18.70;28.40
74101;DHT22;62462;52.530;21.682;2023-05-09T09:35:50;19.00;28.90
74101;DHT22;62462;52.530;21.682;2023-05-09T09:38:20;19.10;27.20
74101;DHT22;62462;52.530;21.682;2023-05-09T09:40:52;19.10;26.80
74101;DHT22;62462;52.530;21.682;2023-05-09T09:43:19;19.10;26.80
74101;DHT22;62462;52.530;21.682;2023-05-09T09:45:49;19.10;26.40
74101;DHT22;62462;52.530;21.682;2023-05-09T09:48:15;19.00;26.70
74101;DHT22;62462;52.530;21.682;2023-05-09T09:50:41;19.10;27.40
74101;DHT22;62462;52.530;21.682;2023-05-09T09:53:06;19.10;26.20
74101;DHT22;62462;52.530;21.682;2023-05-09T09:55:33;19.10;27.50
74101;DHT22;62462;52.530;21.682;2023-05-09T09:57:59;19.20;27.30
74101;DHT22;62462;52.530;21.682;2023-05-09T10:00:26;19.20;27.60
74101;DHT22;62462;52.530;21.682;2023-05-09T10:02:56;19.40;26.90
74101;DHT22;62462;52.530;21.682;2023-05-09T10:05:27;19.50;26.40
74101;DHT22;62462;52.530;21.682;2023-05-09T10:08:02;19.60;26.70
74101;DHT22;62462;52.530;21.682;2023-05-09T10:10:33;19.70;26.70
74101;DHT22;62462;52.530;21.682;2023-05-09T10:13:10;19.90;26.20
74101;DHT22;62462;52.530;21.682;2023-05-09T10:15:37;19.90;25.80
74101;DHT22;62462;52.530;21.682;2023-05-09T10:18:03;19.90;25.90
74101;DHT22;62462;52.530;21.682;2023-05-09T10:20:33;19.90;26.10
74101;DHT22;62462;52.530;21.682;2023-05-09T10:23:03;19.90;28.10
74101;DHT22;62462;52.530;21.682;2023-05-09T10:25:36;19.90;25.20
74101;DHT22;62462;52.530;21.682;2023-05-09T10:28:07;19.90;25.70
74101;DHT22;62462;52.530;21.682;2023-05-09T10:30:38;19.90;25.90
74101;DHT22;62462;52.530;21.682;2023-05-09T10:33:09;19.90;25.30
74101;DHT22;62462;52.530;21.682;2023-05-09T10:35:44;20.00;25.80
74101;DHT22;62462;52.530;21.682;2023-05-09T10:38:11;20.00;25.60
74101;DHT22;62462;52.530;21.682;2023-05-09T10:40:37;19.90;24.30
74101;DHT22;62462;52.530;21.682;2023-05-09T10:43:04;19.90;25.60
74101;DHT22;62462;52.530;21.682;2023-05-09T10:45:32;19.90;25.40
74101;DHT22;62462;52.530;21.682;2023-05-09T10:47:58;20.00;25.80
74101;DHT22;62462;52.530;21.682;2023-05-09T10:50:26;20.20;27.20
74101;DHT22;62462;52.530;21.682;2023-05-09T11:00:48;20.10;24.70
74101;DHT22;62462;52.530;21.682;2023-05-09T11:03:15;20.10;25.00
74101;DHT22;62462;52.530;21.682;2023-05-09T11:05:43;20.20;25.70
74101;DHT22;62462;52.530;21.682;2023-05-09T11:08:24;20.20;25.70
74101;DHT22;62462;52.530;21.682;2023-05-09T11:10:51;20.40;25.10
74101;DHT22;62462;52.530;21.682;2023-05-09T11:13:21;20.50;25.30
74101;DHT22;62462;52.530;21.682;2023-05-09T11:18:16;20.60;24.40
74101;DHT22;62462;52.530;21.682;2023-05-09T11:20:43;20.60;24.80
74101;DHT22;62462;52.530;21.682;2023-05-09T11:23:09;20.60;25.40
74101;DHT22;62462;52.530;21.682;2023-05-09T11:25:38;20.90;26.20
74101;DHT22;62462;52.530;21.682;2023-05-09T11:28:04;21.10;25.00
74101;DHT22;62462;52.530;21.682;2023-05-09T11:30:41;21.10;23.90
74101;DHT22;62462;52.530;21.682;2023-05-09T11:33:21;20.90;23.90
74101;DHT22;62462;52.530;21.682;2023-05-09T11:35:47;20.60;24.60
74101;DHT22;62462;52.530;21.682;2023-05-09T11:38:40;20.60;25.00
74101;DHT22;62462;52.530;21.682;2023-05-09T11:41:07;20.70;24.70
74101;DHT22;62462;52.530;21.682;2023-05-09T11:43:35;20.80;25.40
74101;DHT22;62462;52.530;21.682;2023-05-09T11:46:02;21.00;24.10
74101;DHT22;62462;52.530;21.682;2023-05-09T11:48:28;20.90;24.40
74101;DHT22;62462;52.530;21.682;2023-05-09T11:50:54;20.90;25.50
74101;DHT22;62462;52.530;21.682;2023-05-09T11:53:19;21.20;26.10
74101;DHT22;62462;52.530;21.682;2023-05-09T11:55:45;21.40;25.20
74101;DHT22;62462;52.530;21.682;2023-05-09T11:58:12;21.70;24.80
74101;DHT22;62462;52.530;21.682;2023-05-09T12:00:44;21.70;23.50
74101;DHT22;62462;52.530;21.682;2023-05-09T12:03:10;21.60;24.70
74101;DHT22;62462;52.530;21.682;2023-05-09T12:05:37;21.50;23.80
74101;DHT22;62462;52.530;21.682;2023-05-09T12:08:07;21.50;24.40
74101;DHT22;62462;52.530;21.682;2023-05-09T12:10:37;21.50;24.30
74101;DHT22;62462;52.530;21.682;2023-05-09T12:13:03;21.50;23.90
74101;DHT22;62462;52.530;21.682;2023-05-09T12:15:34;21.40;23.60
74101;DHT22;62462;52.530;21.682;2023-05-09T12:18:05;21.40;25.60
74101;DHT22;62462;52.530;21.682;2023-05-09T12:20:43;21.60;23.90
74101;DHT22;62462;52.530;21.682;2023-05-09T12:23:11;21.50;22.50
74101;DHT22;62462;52.530;21.682;2023-05-09T12:25:46;21.30;24.30
74101;DHT22;62462;52.530;21.682;2023-05-09T12:28:12;21.30;23.50
74101;DHT22;62462;52.530;21.682;2023-05-09T12:30:38;21.40;23.40
74101;DHT22;62462;52.530;21.682;2023-05-09T12:33:04;21.60;24.70
74101;DHT22;62462;52.530;21.682;2023-05-09T12:35:30;21.90;23.50
74101;DHT22;62462;52.530;21.682;2023-05-09T12:37:59;21.90;23.80
74101;DHT22;62462;52.530;21.682;2023-05-09T12:40:26;22.00;23.70
74101;DHT22;62462;52.530;21.682;2023-05-09T12:42:52;22.00;23.70
74101;DHT22;62462;52.530;21.682;2023-05-09T12:45:21;21.90;23.10
74101;DHT22;62462;52.530;21.682;2023-05-09T12:47:50;21.70;23.00
74101;DHT22;62462;52.530;21.682;2023-05-09T12:50:16;21.60;23.90
74101;DHT22;62462;52.530;21.682;2023-05-09T12:52:42;21.60;24.00
74101;DHT22;62462;52.530;21.682;2023-05-09T12:55:12;21.60;23.50
74101;DHT22;62462;52.530;21.682;2023-05-09T12:57:41;21.50;24.40
74101;DHT22;62462;52.530;21.682;2023-05-09T13:00:08;21.60;24.40
74101;DHT22;62462;52.530;21.682;2023-05-09T13:02:35;21.90;24.10
74101;DHT22;62462;52.530;21.682;2023-05-09T13:05:09;22.00;23.80
74101;DHT22;62462;52.530;21.682;2023-05-09T13:07:43;22.00;23.00
74101;DHT22;62462;52.530;21.682;2023-05-09T13:10:13;21.80;23.60
74101;DHT22;62462;52.530;21.682;2023-05-09T13:12:40;21.70;23.10
74101;DHT22;62462;52.530;21.682;2023-05-09T13:15:11;21.80;24.70
74101;DHT22;62462;52.530;21.682;2023-05-09T13:17:38;21.90;24.20
74101;DHT22;62462;52.530;21.682;2023-05-09T13:20:04;22.00;23.30
74101;DHT22;62462;52.530;21.682;2023-05-09T13:22:30;22.20;23.90
74101;DHT22;62462;52.530;21.682;2023-05-09T13:24:56;22.40;23.40
74101;DHT22;62462;52.530;21.682;2023-05-09T13:27:22;22.20;22.50
74101;DHT22;62462;52.530;21.682;2023-05-09T13:29:48;22.10;24.20
74101;DHT22;62462;52.530;21.682;2023-05-09T13:32:14;22.10;23.80
74101;DHT22;62462;52.530;21.682;2023-05-09T13:34:40;22.10;24.20
74101;DHT22;62462;52.530;21.682;2023-05-09T13:37:06;22.30;24.90
74101;DHT22;62462;52.530;21.682;2023-05-09T13:39:32;22.50;24.30
74101;DHT22;62462;52.530;21.682;2023-05-09T13:41:58;22.60;23.70
74101;DHT22;62462;52.530;21.682;2023-05-09T13:44:24;22.60;22.70
74101;DHT22;62462;52.530;21.682;2023-05-09T13:46:50;22.50;22.50
74101;DHT22;62462;52.530;21.682;2023-05-09T13:49:16;22.40;22.60
74101;DHT22;62462;52.530;21.682;2023-05-09T13:51:42;22.30;23.10
74101;DHT22;62462;52.530;21.682;2023-05-09T13:54:08;22.20;22.80
74101;DHT22;62462;52.530;21.682;2023-05-09T13:56:38;22.10;22.20
74101;DHT22;62462;52.530;21.682;2023-05-09T13:59:05;22.00;22.70
74101;DHT22;62462;52.530;21.682;2023-05-09T14:01:31;22.00;23.00
74101;DHT22;62462;52.530;21.682;2023-05-09T14:03:57;22.10;23.10
74101;DHT22;62462;52.530;21.682;2023-05-09T14:06:23;22.30;23.10
74101;DHT22;62462;52.530;21.682;2023-05-09T14:08:49;22.30;22.70
74101;DHT22;62462;52.530;21.682;2023-05-09T14:11:15;22.40;22.60
74101;DHT22;62462;52.530;21.682;2023-05-09T14:13:41;22.40;22.40
74101;DHT22;62462;52.530;21.682;2023-05-09T14:16:06;22.40;23.00
74101;DHT22;62462;52.530;21.682;2023-05-09T14:18:33;22.50;23.20
74101;DHT22;62462;52.530;21.682;2023-05-09T14:21:00;22.40;22.40
74101;DHT22;62462;52.530;21.682;2023-05-09T14:23:26;22.30;22.90
74101;DHT22;62462;52.530;21.682;2023-05-09T14:25:52;22.30;23.70
74101;DHT22;62462;52.530;21.682;2023-05-09T14:28:18;22.10;22.70
74101;DHT22;62462;52.530;21.682;2023-05-09T14:30:43;21.90;22.80
74101;DHT22;62462;52.530;21.682;2023-05-09T14:33:09;21.70;22.50
74101;DHT22;62462;52.530;21.682;2023-05-09T14:35:35;21.60;23.20
74101;DHT22;62462;52.530;21.682;2023-05-09T14:38:01;21.60;22.90
74101;DHT22;62462;52.530;21.682;2023-05-09T14:40:27;21.70;22.90
74101;DHT22;62462;52.530;21.682;2023-05-09T14:42:59;21.70;22.70
74101;DHT22;62462;52.530;21.682;2023-05-09T14:45:30;21.70;22.80
74101;DHT22;62462;52.530;21.682;2023-05-09T14:48:01;21.80;23.40
74101;DHT22;62462;52.530;21.682;2023-05-09T14:50:30;21.80;23.20
74101;DHT22;62462;52.530;21.682;2023-05-09T14:52:56;21.90;23.50
74101;DHT22;62462;52.530;21.682;2023-05-09T14:55:22;22.10;23.30
74101;DHT22;62462;52.530;21.682;2023-05-09T14:57:48;22.10;22.80
74101;DHT22;62462;52.530;21.682;2023-05-09T15:00:14;22.10;23.50
74101;DHT22;62462;52.530;21.682;2023-05-09T15:02:41;22.10;23.10
74101;DHT22;62462;52.530;21.682;2023-05-09T15:05:07;22.00;23.10
74101;DHT22;62462;52.530;21.682;2023-05-09T15:07:34;22.00;22.90
74101;DHT22;62462;52.530;21.682;2023-05-09T15:10:00;21.90;22.60
74101;DHT22;62462;52.530;21.682;2023-05-09T15:12:28;21.90;23.90
74101;DHT22;62462;52.530;21.682;2023-05-09T15:14:57;21.90;22.90
74101;DHT22;62462;52.530;21.682;2023-05-09T15:17:23;21.80;22.60
74101;DHT22;62462;52.530;21.682;2023-05-09T15:19:49;21.80;23.60
74101;DHT22;62462;52.530;21.682;2023-05-09T15:22:15;21.70;23.10
74101;DHT22;62462;52.530;21.682;2023-05-09T15:24:41;21.60;23.80
74101;DHT22;62462;52.530;21.682;2023-05-09T15:27:08;21.60;23.60
74101;DHT22;62462;52.530;21.682;2023-05-09T15:29:34;21.50;22.80
74101;DHT22;62462;52.530;21.682;2023-05-09T15:32:00;21.40;23.40
74101;DHT22;62462;52.530;21.682;2023-05-09T15:34:26;21.20;23.20
74101;DHT22;62462;52.530;21.682;2023-05-09T15:36:52;21.10;23.80
74101;DHT22;62462;52.530;21.682;2023-05-09T15:39:18;21.00;23.90
74101;DHT22;62462;52.530;21.682;2023-05-09T15:41:44;21.00;23.60